createdAt,value
2019-05-14T00:00:04.004Z,0.00
2019-05-14T00:01:04.035Z,0.00
2019-05-14T00:02:04.063Z,0.00
2019-05-14T00:03:04.093Z,0.00
2019-05-14T00:04:04.120Z,0.00
2019-05-14T00:05:04.148Z,0.00
2019-05-14T00:06:04.178Z,0.00
2019-05-14T00:07:04.230Z,0.00
2019-05-14T00:08:04.256Z,0.00
2019-05-14T00:09:04.263Z,0.00
2019-05-14T00:10:04.516Z,0.00
2019-05-14T00:11:04.344Z,0.00
2019-05-14T00:12:04.554Z,0.00
2019-05-14T00:13:04.380Z,0.00
2019-05-14T00:15:04.659Z,0.00
2019-05-14T00:16:04.488Z,0.00
2019-05-14T00:17:04.721Z,0.00
2019-05-14T00:18:04.544Z,0.00
2019-05-14T00:19:04.573Z,0.00
2019-05-14T00:20:09.397Z,0.00
2019-05-14T00:21:05.247Z,0.00
2019-05-14T00:22:04.662Z,0.00
2019-05-14T00:24:05.121Z,0.00
2019-05-14T00:26:04.779Z,0.00
2019-05-14T00:27:04.802Z,0.00
2019-05-14T00:28:04.837Z,0.00
2019-05-14T00:29:04.863Z,0.00
2019-05-14T00:30:04.888Z,0.00
2019-05-14T00:31:04.917Z,0.00
2019-05-14T00:32:05.861Z,0.00
2019-05-14T00:33:04.975Z,0.00
2019-05-14T00:35:05.034Z,0.00
2019-05-14T00:36:05.064Z,0.00
2019-05-14T00:38:05.322Z,0.00
2019-05-14T00:39:05.152Z,0.00
2019-05-14T00:43:05.267Z,0.00
2019-05-14T00:44:05.295Z,0.00
2019-05-14T00:47:05.865Z,0.00
2019-05-14T00:48:06.525Z,0.00
2019-05-14T01:09:05.988Z,0.00
2019-05-14T01:10:06.041Z,0.00
2019-05-14T01:14:06.154Z,0.00
2019-05-14T01:22:06.590Z,0.00
2019-05-14T01:25:06.461Z,0.00
2019-05-14T01:27:06.506Z,0.00
2019-05-14T01:32:06.651Z,0.00
2019-05-14T01:33:06.677Z,0.00
2019-05-14T01:34:06.707Z,0.00
2019-05-14T01:35:06.960Z,0.00
2019-05-14T01:36:06.785Z,0.00
2019-05-14T01:44:06.993Z,0.00
2019-05-14T01:45:21.095Z,0.00
2019-05-14T01:46:07.051Z,0.00
2019-05-14T01:47:07.708Z,0.00
2019-05-14T01:48:07.108Z,0.00
2019-05-14T01:49:07.156Z,0.00
2019-05-14T01:52:21.854Z,0.00
2019-05-14T01:54:07.280Z,0.00
2019-05-14T01:55:07.537Z,0.00
2019-05-14T01:57:07.364Z,0.00
2019-05-14T01:58:07.393Z,0.00
2019-05-14T01:59:07.446Z,0.00
2019-05-14T02:00:07.450Z,0.00
2019-05-14T02:01:07.478Z,0.00
2019-05-14T02:02:07.507Z,0.00
2019-05-14T02:03:07.537Z,0.00
2019-05-14T02:04:07.564Z,0.00
2019-05-14T02:05:08.024Z,0.00
2019-05-14T02:06:07.621Z,0.00
2019-05-14T02:07:07.674Z,0.00
2019-05-14T02:08:07.678Z,0.00
2019-05-14T02:09:07.706Z,0.00
2019-05-14T02:10:07.733Z,0.00
2019-05-14T02:11:07.763Z,0.00
2019-05-14T02:12:07.792Z,0.00
2019-05-14T02:13:07.818Z,0.00
2019-05-14T02:14:07.868Z,0.00
2019-05-14T02:15:07.898Z,0.00
2019-05-14T02:16:07.913Z,0.00
2019-05-14T02:17:07.930Z,0.00
2019-05-14T02:18:07.958Z,0.00
2019-05-14T02:19:07.988Z,0.00
2019-05-14T02:20:08.015Z,0.00
2019-05-14T02:21:08.043Z,0.00
2019-05-14T02:22:08.072Z,0.00
2019-05-14T02:23:08.120Z,0.00
2019-05-14T02:24:08.127Z,0.00
2019-05-14T02:25:08.156Z,0.00
2019-05-14T02:26:08.182Z,0.00
2019-05-14T02:27:08.413Z,0.00
2019-05-14T02:28:08.239Z,0.00
2019-05-14T02:29:08.288Z,0.00
2019-05-14T02:31:09.367Z,0.00
2019-05-14T02:32:10.387Z,0.00
2019-05-14T02:33:09.218Z,0.00
2019-05-14T02:34:10.186Z,0.00
2019-05-14T02:35:09.879Z,0.00
2019-05-14T02:36:10.328Z,0.00
2019-05-14T02:37:09.359Z,0.00
2019-05-14T02:38:10.329Z,0.00
2019-05-14T02:39:10.148Z,0.00
2019-05-14T02:40:09.888Z,0.00
2019-05-14T02:41:10.016Z,0.00
2019-05-14T02:42:12.185Z,0.00
2019-05-14T02:44:09.867Z,0.00
2019-05-14T02:45:09.061Z,0.00
2019-05-14T02:46:16.050Z,0.00
2019-05-14T02:47:09.896Z,0.00
2019-05-14T02:49:10.461Z,0.00
2019-05-14T02:50:10.039Z,0.00
2019-05-14T02:51:10.507Z,0.00
2019-05-14T02:52:09.908Z,0.00
2019-05-14T02:53:10.334Z,0.00
2019-05-14T02:54:10.021Z,0.00
2019-05-14T02:55:09.499Z,0.00
2019-05-14T02:56:10.318Z,0.00
2019-05-14T02:58:09.998Z,0.00
2019-05-14T02:59:10.001Z,0.00
2019-05-14T03:00:10.088Z,0.00
2019-05-14T03:01:09.604Z,0.00
2019-05-14T03:02:10.070Z,0.00
2019-05-14T03:03:10.419Z,0.00
2019-05-14T03:04:09.838Z,0.00
2019-05-14T03:10:10.312Z,0.00
2019-05-14T03:11:12.046Z,0.00
2019-05-14T03:12:10.289Z,0.00
2019-05-14T03:13:09.789Z,0.00
2019-05-14T03:14:09.507Z,0.00
2019-05-14T03:15:09.957Z,0.00
2019-05-14T03:16:22.403Z,4.00
2019-05-14T03:17:10.622Z,4.00
2019-05-14T03:18:09.614Z,0.00
2019-05-14T03:19:10.103Z,0.00
2019-05-14T03:20:10.085Z,4.00
2019-05-14T03:21:09.696Z,0.00
2019-05-14T03:22:10.254Z,4.00
2019-05-14T03:23:15.611Z,4.00
2019-05-14T03:24:09.861Z,8.00
2019-05-14T03:25:10.816Z,8.00
2019-05-14T03:26:12.454Z,8.00
2019-05-14T03:27:10.189Z,12.00
2019-05-14T03:28:09.886Z,16.00
2019-05-14T03:29:10.240Z,16.00
2019-05-14T03:30:12.799Z,16.00
2019-05-14T03:31:13.308Z,20.00
2019-05-14T03:32:13.308Z,28.00
2019-05-14T03:33:13.195Z,28.00
2019-05-14T03:35:13.294Z,40.00
2019-05-14T03:37:13.188Z,56.00
2019-05-14T03:38:11.366Z,64.00
2019-05-14T03:39:12.806Z,72.00
2019-05-14T03:40:10.205Z,80.00
2019-05-14T03:41:14.167Z,92.00
2019-05-14T03:42:10.273Z,108.00
2019-05-14T03:43:10.286Z,124.00
2019-05-14T03:44:52.853Z,148.00
2019-05-14T03:45:52.881Z,164.00
2019-05-14T03:46:55.497Z,188.00
2019-05-14T03:47:53.742Z,204.00
2019-05-14T03:48:52.983Z,228.00
2019-05-14T03:49:53.008Z,252.00
2019-05-14T03:50:53.012Z,276.00
2019-05-14T03:51:53.039Z,304.00
2019-05-14T03:52:53.092Z,336.00
2019-05-14T03:54:02.007Z,364.00
2019-05-14T03:54:53.145Z,396.00
2019-05-14T03:56:53.170Z,460.00
2019-05-14T03:57:53.198Z,496.00
2019-05-14T03:58:53.226Z,528.00
2019-05-14T03:59:53.251Z,568.00
2019-05-14T04:00:53.278Z,608.00
2019-05-14T04:02:55.086Z,684.00
2019-05-14T04:03:53.365Z,724.00
2019-05-14T04:04:53.713Z,760.00
2019-05-14T04:05:53.434Z,804.00
2019-05-14T04:06:53.459Z,844.00
2019-05-14T04:07:53.866Z,884.00
2019-05-14T04:08:53.520Z,928.00
2019-05-14T04:09:53.739Z,964.00
2019-05-14T04:10:54.372Z,1008.00
2019-05-14T04:11:53.589Z,1048.00
2019-05-14T04:12:53.622Z,1092.00
2019-05-14T04:13:53.644Z,1132.00
2019-05-14T04:14:53.980Z,1176.00
2019-05-14T04:15:53.701Z,1212.00
2019-05-14T04:17:53.726Z,1292.00
2019-05-14T04:18:53.752Z,1336.00
2019-05-14T04:19:53.784Z,1376.00
2019-05-14T04:20:53.805Z,1416.00
2019-05-14T04:21:53.832Z,1456.00
2019-05-14T04:22:53.866Z,1492.00
2019-05-14T04:23:53.887Z,1532.00
2019-05-14T04:24:53.926Z,1572.00
2019-05-14T04:25:53.937Z,1612.00
2019-05-14T04:27:03.497Z,1648.00
2019-05-14T04:27:53.993Z,1680.00
2019-05-14T04:28:54.420Z,1720.00
2019-05-14T04:29:54.044Z,1756.00
2019-05-14T04:30:54.275Z,1792.00
2019-05-14T04:31:54.097Z,1832.00
2019-05-14T04:33:54.150Z,1904.00
2019-05-14T04:35:54.209Z,2000.00
2019-05-14T04:36:54.228Z,2044.00
2019-05-14T04:37:54.255Z,2092.00
2019-05-14T04:38:55.345Z,2152.00
2019-05-14T04:39:54.356Z,2228.00
2019-05-14T04:40:54.333Z,2308.00
2019-05-14T04:41:54.361Z,2384.00
2019-05-14T04:42:54.385Z,2452.00
2019-05-14T04:43:54.413Z,2508.00
2019-05-14T04:44:54.439Z,2552.00
2019-05-14T04:45:54.467Z,2592.00
2019-05-14T04:46:54.492Z,2624.00
2019-05-14T04:47:54.518Z,2656.00
2019-05-14T04:48:54.544Z,2680.00
2019-05-14T04:49:54.572Z,2712.00
2019-05-14T04:50:54.599Z,2744.00
2019-05-14T04:51:54.627Z,2772.00
2019-05-14T04:52:54.652Z,2804.00
2019-05-14T04:53:54.694Z,2832.00
2019-05-14T04:54:54.705Z,2860.00
2019-05-14T04:55:54.740Z,2892.00
2019-05-14T04:56:54.758Z,2920.00
2019-05-14T04:57:54.786Z,2952.00
2019-05-14T04:58:54.811Z,2976.00
2019-05-14T04:59:54.849Z,3008.00
2019-05-14T05:00:54.866Z,3016.00
2019-05-14T05:01:54.903Z,3044.00
2019-05-14T05:02:54.923Z,3068.00
2019-05-14T05:03:54.946Z,3088.00
2019-05-14T05:04:54.972Z,3116.00
2019-05-14T05:05:55.004Z,3144.00
2019-05-14T05:06:55.028Z,3164.00
2019-05-14T05:07:55.053Z,3184.00
2019-05-14T05:09:55.109Z,3232.00
2019-05-14T05:10:55.134Z,3252.00
2019-05-14T05:11:55.161Z,3272.00
2019-05-14T05:12:55.188Z,3296.00
2019-05-14T05:13:55.215Z,3316.00
2019-05-14T05:14:55.243Z,3328.00
2019-05-14T05:15:55.271Z,3348.00
2019-05-14T05:16:55.297Z,3372.00
2019-05-14T05:17:55.325Z,3400.00
2019-05-14T05:20:55.408Z,3456.00
2019-05-14T05:33:58.209Z,3672.00
2019-05-14T05:36:58.978Z,3724.00
2019-05-14T05:37:58.328Z,3736.00
2019-05-14T05:39:58.394Z,3760.00
2019-05-14T05:40:59.937Z,3776.00
2019-05-14T05:41:58.539Z,3772.00
2019-05-14T05:43:58.951Z,3612.00
2019-05-14T05:46:59.456Z,3888.00
2019-05-14T05:48:00.172Z,3896.00
2019-05-14T05:48:58.744Z,3904.00
2019-05-14T05:49:58.184Z,3924.00
2019-05-14T05:50:59.102Z,3940.00
2019-05-14T05:51:59.200Z,3952.00
2019-05-14T05:52:58.488Z,3964.00
2019-05-14T05:53:58.778Z,3972.00
2019-05-14T05:55:59.285Z,3996.00
2019-05-14T05:56:58.170Z,3988.00
2019-05-14T05:57:58.715Z,4012.00
2019-05-14T05:58:57.319Z,4004.00
2019-05-14T05:59:58.940Z,4016.00
2019-05-14T06:00:59.158Z,4020.00
2019-05-14T06:01:58.626Z,4036.00
2019-05-14T06:02:59.121Z,4032.00
2019-05-14T06:03:58.403Z,4044.00
2019-05-14T06:04:58.648Z,4032.00
2019-05-14T06:05:59.426Z,4052.00
2019-05-14T06:06:58.702Z,4044.00
2019-05-14T06:07:59.080Z,4068.00
2019-05-14T06:09:58.879Z,4088.00
2019-05-14T06:11:59.180Z,4120.00
2019-05-14T06:15:59.071Z,4252.00
2019-05-14T06:16:59.135Z,4260.00
2019-05-14T06:18:11.645Z,4284.00
2019-05-14T06:18:58.790Z,4304.00
2019-05-14T06:19:59.123Z,4316.00
2019-05-14T06:20:58.637Z,4328.00
2019-05-14T06:21:59.703Z,4344.00
2019-05-14T06:22:58.904Z,4352.00
2019-05-14T06:23:58.331Z,4368.00
2019-05-14T06:24:58.613Z,4380.00
2019-05-14T06:25:59.883Z,4400.00
2019-05-14T06:26:58.680Z,4412.00
2019-05-14T06:27:59.043Z,4424.00
2019-05-14T06:28:59.740Z,4444.00
2019-05-14T06:29:58.422Z,4460.00
2019-05-14T06:30:58.904Z,4476.00
2019-05-14T06:31:58.987Z,4488.00
2019-05-14T06:32:59.393Z,4508.00
2019-05-14T06:33:59.161Z,4528.00
2019-05-14T06:34:59.321Z,4544.00
2019-05-14T06:35:59.209Z,4560.00
2019-05-14T06:36:59.123Z,4580.00
2019-05-14T06:37:58.432Z,4600.00
2019-05-14T06:38:58.746Z,4620.00
2019-05-14T06:39:58.636Z,4636.00
2019-05-14T06:40:59.273Z,4652.00
2019-05-14T06:41:58.789Z,4672.00
2019-05-14T06:42:59.115Z,4688.00
2019-05-14T06:43:59.107Z,4708.00
2019-05-14T06:44:58.750Z,4728.00
2019-05-14T06:45:58.824Z,4748.00
2019-05-14T06:46:59.156Z,4772.00
2019-05-14T06:47:59.326Z,4776.00
2019-05-14T06:48:59.192Z,4808.00
2019-05-14T06:49:59.360Z,4832.00
2019-05-14T06:50:58.811Z,4852.00
2019-05-14T06:51:59.432Z,4876.00
2019-05-14T06:52:58.868Z,4888.00
2019-05-14T06:53:59.017Z,4888.00
2019-05-14T06:54:58.929Z,4928.00
2019-05-14T06:55:59.032Z,4948.00
2019-05-14T06:56:58.988Z,4980.00
2019-05-14T06:58:01.873Z,4996.00
2019-05-14T06:58:59.046Z,5028.00
2019-05-14T06:59:59.077Z,5048.00
2019-05-14T07:00:59.289Z,5088.00
2019-05-14T07:01:59.134Z,5104.00
2019-05-14T07:02:59.165Z,5144.00
2019-05-14T07:03:59.194Z,5168.00
2019-05-14T07:04:59.244Z,5196.00
2019-05-14T07:05:59.627Z,5216.00
2019-05-14T07:06:59.300Z,5248.00
2019-05-14T07:07:59.832Z,5324.00
2019-05-14T07:08:59.345Z,5352.00
2019-05-14T07:09:59.375Z,5384.00
2019-05-14T07:10:59.506Z,5420.00
2019-05-14T07:11:59.432Z,5452.00
2019-05-14T07:12:59.467Z,5476.00
2019-05-14T07:13:59.494Z,5504.00
2019-05-14T07:14:59.523Z,5540.00
2019-05-14T07:15:59.554Z,5572.00
2019-05-14T07:16:59.583Z,5612.00
2019-05-14T07:17:59.614Z,5640.00
2019-05-14T07:18:59.643Z,5668.00
2019-05-14T07:19:59.726Z,5708.00
2019-05-14T07:20:59.704Z,5744.00
2019-05-14T07:21:59.731Z,5792.00
2019-05-14T07:22:59.764Z,5828.00
2019-05-14T07:23:59.793Z,5728.00
2019-05-14T07:24:59.828Z,5884.00
2019-05-14T07:25:59.855Z,5924.00
2019-05-14T07:26:59.887Z,5960.00
2019-05-14T07:27:59.915Z,5996.00
2019-05-14T07:28:59.947Z,6036.00
2019-05-14T07:29:59.975Z,6080.00
2019-05-14T07:31:00.006Z,6140.00
2019-05-14T07:32:00.038Z,6176.00
2019-05-14T07:33:00.067Z,6232.00
2019-05-14T07:34:00.097Z,6280.00
2019-05-14T07:35:00.139Z,6344.00
2019-05-14T07:36:00.160Z,6388.00
2019-05-14T07:37:00.197Z,6432.00
2019-05-14T07:38:00.220Z,6484.00
2019-05-14T07:39:00.534Z,6532.00
2019-05-14T07:40:00.283Z,6584.00
2019-05-14T07:41:00.313Z,6632.00
2019-05-14T07:42:00.345Z,6684.00
2019-05-14T07:43:00.374Z,6716.00
2019-05-14T07:44:00.408Z,6768.00
2019-05-14T07:45:00.437Z,6816.00
2019-05-14T07:46:00.469Z,6880.00
2019-05-14T07:47:00.502Z,6940.00
2019-05-14T07:48:00.530Z,6996.00
2019-05-14T07:49:07.548Z,7072.00
2019-05-14T07:50:00.593Z,7144.00
2019-05-14T07:51:00.623Z,7192.00
2019-05-14T07:52:00.657Z,7276.00
2019-05-14T07:53:03.121Z,7604.00
2019-05-14T07:54:00.719Z,7592.00
2019-05-14T07:55:00.749Z,6600.00
2019-05-14T07:56:00.793Z,7452.00
2019-05-14T07:57:00.817Z,7604.00
2019-05-14T07:58:00.852Z,5660.00
2019-05-14T07:59:02.336Z,7740.00
2019-05-14T08:00:00.908Z,7812.00
2019-05-14T08:01:00.942Z,7852.00
2019-05-14T08:02:00.972Z,8660.00
2019-05-14T08:03:01.003Z,8320.00
2019-05-14T08:04:01.037Z,8132.00
2019-05-14T08:05:01.069Z,8132.00
2019-05-14T08:06:01.100Z,8164.00
2019-05-14T08:07:01.132Z,8144.00
2019-05-14T08:08:01.167Z,8312.00
2019-05-14T08:09:01.196Z,8492.00
2019-05-14T08:10:01.228Z,8696.00
2019-05-14T08:11:03.906Z,8544.00
2019-05-14T08:12:01.294Z,8532.00
2019-05-14T08:13:01.330Z,8692.00
2019-05-14T08:14:05.064Z,5788.00
2019-05-14T08:15:14.283Z,5120.00
2019-05-14T08:16:01.422Z,8552.00
2019-05-14T08:17:01.456Z,5696.00
2019-05-14T08:18:01.487Z,9332.00
2019-05-14T08:19:04.879Z,10460.00
2019-05-14T08:20:01.577Z,11004.00
2019-05-14T08:21:01.585Z,9356.00
2019-05-14T08:22:01.618Z,9292.00
2019-05-14T08:23:01.674Z,10088.00
2019-05-14T08:24:01.683Z,7448.00
2019-05-14T08:27:01.779Z,6680.00
2019-05-14T08:28:01.813Z,9592.00
2019-05-14T08:29:01.845Z,9428.00
2019-05-14T08:30:01.877Z,9612.00
2019-05-14T08:31:01.912Z,9440.00
2019-05-14T08:32:01.949Z,9612.00
2019-05-14T08:34:04.761Z,10288.00
2019-05-14T08:35:02.042Z,10700.00
2019-05-14T08:36:02.075Z,10160.00
2019-05-14T08:37:03.984Z,13232.00
2019-05-14T08:38:07.659Z,12932.00
2019-05-14T08:39:02.175Z,12556.00
2019-05-14T08:40:02.207Z,11984.00
2019-05-14T08:41:02.848Z,10696.00
2019-05-14T08:42:04.297Z,12292.00
2019-05-14T08:43:02.313Z,13040.00
2019-05-14T08:44:02.343Z,12868.00
2019-05-14T08:45:04.831Z,9532.00
2019-05-14T08:46:02.408Z,12800.00
2019-05-14T08:47:02.443Z,13728.00
2019-05-14T08:48:02.891Z,14212.00
2019-05-14T08:49:02.520Z,9776.00
2019-05-14T08:50:02.544Z,14116.00
2019-05-14T08:51:02.581Z,15048.00
2019-05-14T08:52:02.817Z,14676.00
2019-05-14T08:53:02.661Z,9664.00
2019-05-14T08:54:02.681Z,9020.00
2019-05-14T08:55:09.949Z,13956.00
2019-05-14T08:56:02.752Z,13780.00
2019-05-14T08:57:02.833Z,13576.00
2019-05-14T08:58:02.953Z,13572.00
2019-05-14T08:59:02.850Z,13356.00
2019-05-14T09:00:02.905Z,13772.00
2019-05-14T09:01:02.922Z,15148.00
2019-05-14T09:02:06.601Z,15664.00
2019-05-14T09:03:03.368Z,15700.00
2019-05-14T09:04:03.023Z,14900.00
2019-05-14T09:06:03.114Z,11500.00
2019-05-14T09:07:03.150Z,13092.00
2019-05-14T09:08:03.490Z,13424.00
2019-05-14T09:09:03.222Z,12032.00
2019-05-14T09:12:03.346Z,18976.00
2019-05-14T09:13:03.565Z,15156.00
2019-05-14T09:14:03.459Z,11912.00
2019-05-14T09:15:03.426Z,15032.00
2019-05-14T09:16:03.440Z,12396.00
2019-05-14T09:17:03.477Z,14792.00
2019-05-14T09:18:03.987Z,17888.00
2019-05-14T09:19:03.546Z,18432.00
2019-05-14T09:20:07.168Z,16780.00
2019-05-14T09:21:03.615Z,15336.00
2019-05-14T09:22:03.651Z,13520.00
2019-05-14T09:23:03.706Z,14672.00
2019-05-14T09:24:03.795Z,14872.00
2019-05-14T09:26:03.788Z,18240.00
2019-05-14T09:30:03.953Z,17984.00
2019-05-14T09:31:04.296Z,19424.00
2019-05-14T09:33:04.057Z,22784.00
2019-05-14T09:34:04.071Z,20928.00
2019-05-14T09:35:04.101Z,19648.00
2019-05-14T09:36:14.702Z,25536.00
2019-05-14T09:37:04.176Z,21984.00
2019-05-14T09:38:04.207Z,19840.00
2019-05-14T09:39:04.242Z,17888.00
2019-05-14T09:40:04.278Z,23008.00
2019-05-14T09:41:11.228Z,20096.00
2019-05-14T09:42:04.350Z,24096.00
2019-05-14T09:43:04.383Z,22400.00
2019-05-14T09:44:04.420Z,21696.00
2019-05-14T09:45:04.484Z,20832.00
2019-05-14T09:46:04.489Z,18336.00
2019-05-14T09:47:04.525Z,17504.00
2019-05-14T09:48:04.561Z,15900.00
2019-05-14T09:49:04.595Z,18112.00
2019-05-14T09:50:16.362Z,17536.00
2019-05-14T09:51:04.668Z,25120.00
2019-05-14T09:52:04.701Z,20576.00
2019-05-14T09:53:04.737Z,18464.00
2019-05-14T09:54:04.771Z,17536.00
2019-05-14T09:55:04.806Z,17184.00
2019-05-14T09:56:04.842Z,16348.00
2019-05-14T09:57:04.876Z,17632.00
2019-05-14T09:58:04.911Z,19520.00
2019-05-14T09:59:04.947Z,19872.00
2019-05-14T10:00:04.982Z,22912.00
2019-05-14T10:01:05.019Z,18688.00
2019-05-14T10:02:05.050Z,18368.00
2019-05-14T10:03:05.094Z,18592.00
2019-05-14T10:04:05.121Z,16620.00
2019-05-14T10:05:05.162Z,19168.00
2019-05-14T10:06:05.191Z,23584.00
2019-05-14T10:07:05.224Z,26496.00
2019-05-14T10:08:05.265Z,22272.00
2019-05-14T10:09:05.296Z,20960.00
2019-05-14T10:10:05.337Z,28320.00
2019-05-14T10:11:05.383Z,20192.00
2019-05-14T10:12:05.403Z,18304.00
2019-05-14T10:13:05.436Z,18176.00
2019-05-14T10:14:07.808Z,113472.00
2019-05-14T10:15:05.507Z,19936.00
2019-05-14T10:16:05.543Z,20640.00
2019-05-14T10:17:05.580Z,22400.00
2019-05-14T10:18:05.631Z,24064.00
2019-05-14T10:19:05.649Z,20288.00
2019-05-14T10:20:08.596Z,18272.00
2019-05-14T10:21:08.356Z,18272.00
2019-05-14T10:22:08.101Z,18112.00
2019-05-14T10:23:05.817Z,18208.00
2019-05-14T10:24:05.834Z,18272.00
2019-05-14T10:25:05.867Z,17152.00
2019-05-14T10:26:05.902Z,15936.00
2019-05-14T10:27:08.676Z,15560.00
2019-05-14T10:28:08.447Z,15908.00
2019-05-14T10:29:08.493Z,15700.00
2019-05-14T10:30:09.274Z,15248.00
2019-05-14T10:31:09.179Z,15032.00
2019-05-14T10:32:08.540Z,16832.00
2019-05-14T10:33:13.834Z,24672.00
2019-05-14T10:34:08.252Z,71872.00
2019-05-14T10:35:08.378Z,127136.00
2019-05-14T10:36:06.259Z,125408.00
2019-05-14T10:37:08.584Z,124704.00
2019-05-14T10:38:08.823Z,122720.00
2019-05-14T10:39:09.628Z,117280.00
2019-05-14T10:40:06.407Z,34432.00
2019-05-14T10:41:08.807Z,25120.00
2019-05-14T10:42:08.312Z,23328.00
2019-05-14T10:43:08.856Z,23648.00
2019-05-14T10:44:09.073Z,29376.00
2019-05-14T10:45:12.009Z,86816.00
2019-05-14T10:46:09.024Z,89856.00
2019-05-14T10:47:08.964Z,29248.00
2019-05-14T10:48:09.366Z,24128.00
2019-05-14T10:49:19.207Z,22976.00
2019-05-14T10:50:13.330Z,22176.00
2019-05-14T10:51:06.840Z,21216.00
2019-05-14T10:52:08.283Z,24512.00
2019-05-14T10:53:08.992Z,19808.00
2019-05-14T10:54:21.127Z,17312.00
2019-05-14T10:55:08.027Z,15756.00
2019-05-14T10:56:07.034Z,15732.00
2019-05-14T10:57:09.694Z,15704.00
2019-05-14T10:58:08.857Z,15116.00
2019-05-14T10:59:09.502Z,14924.00
2019-05-14T11:00:08.907Z,14784.00
2019-05-14T11:01:11.236Z,14408.00
2019-05-14T11:02:11.583Z,16672.00
2019-05-14T11:03:07.301Z,123520.00
2019-05-14T11:04:07.439Z,124640.00
2019-05-14T11:05:07.428Z,124256.00
2019-05-14T11:06:11.401Z,135424.00
2019-05-14T11:07:07.456Z,28672.00
2019-05-14T11:08:11.691Z,27904.00
2019-05-14T11:09:09.103Z,28192.00
2019-05-14T11:10:09.206Z,22880.00
2019-05-14T11:11:10.317Z,54784.00
2019-05-14T11:12:09.011Z,49920.00
2019-05-14T11:13:08.953Z,21504.00
2019-05-14T11:14:08.819Z,22304.00
2019-05-14T11:15:07.770Z,28608.00
2019-05-14T11:16:08.626Z,20800.00
2019-05-14T11:17:11.689Z,126720.00
2019-05-14T11:18:08.665Z,136832.00
2019-05-14T11:19:09.507Z,26880.00
2019-05-14T11:20:08.180Z,139488.00
2019-05-14T11:21:19.823Z,137952.00
2019-05-14T11:22:08.540Z,140992.00
2019-05-14T11:23:08.963Z,142144.00
2019-05-14T11:24:09.471Z,140448.00
2019-05-14T11:25:09.273Z,139296.00
2019-05-14T11:26:09.158Z,137664.00
2019-05-14T11:27:08.592Z,139456.00
2019-05-14T11:28:08.315Z,138624.00
2019-05-14T11:29:08.338Z,132384.00
2019-05-14T11:30:08.982Z,138848.00
2019-05-14T11:31:09.343Z,130880.00
2019-05-14T11:32:09.773Z,135616.00
2019-05-14T11:33:09.128Z,23584.00
2019-05-14T11:34:08.557Z,20768.00
2019-05-14T11:35:12.957Z,19328.00
2019-05-14T11:36:09.272Z,18144.00
2019-05-14T11:37:08.800Z,18304.00
2019-05-14T11:38:27.946Z,102432.00
2019-05-14T11:39:09.323Z,139456.00
2019-05-14T11:40:08.840Z,135968.00
2019-05-14T11:41:09.592Z,135072.00
2019-05-14T11:42:08.915Z,140768.00
2019-05-14T11:43:08.961Z,34688.00
2019-05-14T11:44:09.271Z,32480.00
2019-05-14T11:45:09.149Z,124000.00
2019-05-14T11:47:09.326Z,133856.00
2019-05-14T11:48:09.183Z,138144.00
2019-05-14T11:49:09.231Z,142368.00
2019-05-14T11:50:10.071Z,142432.00
2019-05-14T11:51:09.373Z,142240.00
2019-05-14T11:52:11.707Z,145440.00
2019-05-14T11:53:09.413Z,54976.00
2019-05-14T11:54:09.645Z,142048.00
2019-05-14T11:55:09.554Z,141408.00
2019-05-14T11:56:09.551Z,137664.00
2019-05-14T11:57:11.648Z,136128.00
2019-05-14T11:58:09.645Z,133632.00
2019-05-14T11:59:09.693Z,128288.00
2019-05-14T12:00:09.738Z,123136.00
2019-05-14T12:01:09.787Z,120352.00
2019-05-14T12:02:09.845Z,121952.00
2019-05-14T12:03:09.883Z,124832.00
2019-05-14T12:04:09.936Z,126272.00
2019-05-14T12:05:09.981Z,133984.00
2019-05-14T12:06:10.141Z,32288.00
2019-05-14T12:07:10.078Z,21216.00
2019-05-14T12:08:10.169Z,144352.00
2019-05-14T12:09:52.738Z,27968.00
2019-05-14T12:10:52.788Z,27712.00
2019-05-14T12:11:52.830Z,26912.00
2019-05-14T12:12:52.874Z,29152.00
2019-05-14T12:13:52.923Z,46240.00
2019-05-14T12:14:52.968Z,146208.00
2019-05-14T12:15:53.015Z,37152.00
2019-05-14T12:16:53.063Z,140768.00
2019-05-14T12:17:53.105Z,136000.00
2019-05-14T12:18:53.155Z,38912.00
2019-05-14T12:19:53.194Z,25120.00
2019-05-14T12:20:55.861Z,23840.00
2019-05-14T12:22:06.292Z,22848.00
2019-05-14T12:22:53.328Z,24288.00
2019-05-14T12:23:53.384Z,70400.00
2019-05-14T12:24:53.417Z,89568.00
2019-05-14T12:25:53.461Z,24992.00
2019-05-14T12:26:53.506Z,25344.00
2019-05-14T12:27:53.551Z,30144.00
2019-05-14T12:28:56.047Z,21504.00
2019-05-14T12:29:53.660Z,20608.00
2019-05-14T12:30:55.093Z,24320.00
2019-05-14T12:31:53.718Z,44576.00
2019-05-14T12:32:53.760Z,29120.00
2019-05-14T12:33:53.801Z,138080.00
2019-05-14T12:34:53.845Z,33920.00
2019-05-14T12:36:53.926Z,20352.00
2019-05-14T12:37:53.968Z,18272.00
2019-05-14T12:38:54.032Z,16672.00
2019-05-14T12:39:54.050Z,15456.00
2019-05-14T12:40:55.103Z,15476.00
2019-05-14T12:41:54.130Z,16520.00
2019-05-14T12:42:54.171Z,18240.00
2019-05-14T12:43:54.213Z,20800.00
2019-05-14T12:44:54.253Z,34144.00
2019-05-14T12:45:54.291Z,32096.00
2019-05-14T12:46:54.332Z,31488.00
2019-05-14T12:47:54.371Z,48000.00
2019-05-14T12:48:54.415Z,75328.00
2019-05-14T12:50:54.489Z,27872.00
2019-05-14T12:51:54.527Z,20928.00
2019-05-14T12:52:54.587Z,19296.00
2019-05-14T12:53:54.612Z,18272.00
2019-05-14T12:54:54.644Z,19200.00
2019-05-14T12:55:54.683Z,23136.00
2019-05-14T12:56:54.720Z,144064.00
2019-05-14T12:57:54.766Z,26272.00
2019-05-14T12:58:54.803Z,24032.00
2019-05-14T12:59:54.838Z,23040.00
2019-05-14T13:00:54.885Z,24480.00
2019-05-14T13:01:54.914Z,21024.00
2019-05-14T13:02:54.954Z,19200.00
2019-05-14T13:03:54.994Z,19488.00
2019-05-14T13:04:55.030Z,32448.00
2019-05-14T13:05:55.069Z,137152.00
2019-05-14T13:06:55.107Z,95584.00
2019-05-14T13:07:55.146Z,29440.00
2019-05-14T13:08:55.184Z,26688.00
2019-05-14T13:09:55.224Z,39008.00
2019-05-14T13:10:55.262Z,29440.00
2019-05-14T13:11:55.304Z,57024.00
2019-05-14T13:12:55.340Z,92064.00
2019-05-14T13:13:55.380Z,130496.00
2019-05-14T13:14:58.042Z,143040.00
2019-05-14T13:15:55.461Z,116064.00
2019-05-14T13:16:55.503Z,90976.00
2019-05-14T13:17:55.542Z,20576.00
2019-05-14T13:18:55.583Z,20000.00
2019-05-14T13:19:55.825Z,19360.00
2019-05-14T13:20:55.663Z,19776.00
2019-05-14T13:22:12.098Z,21120.00
2019-05-14T13:22:55.745Z,20672.00
2019-05-14T13:23:55.788Z,20160.00
2019-05-14T13:24:58.042Z,19328.00
2019-05-14T13:25:58.427Z,19008.00
2019-05-14T13:26:58.618Z,18688.00
2019-05-14T13:27:55.976Z,18272.00
2019-05-14T13:28:58.636Z,18464.00
2019-05-14T13:29:56.077Z,19456.00
2019-05-14T13:30:56.067Z,20960.00
2019-05-14T13:31:56.106Z,23360.00
2019-05-14T13:32:56.145Z,81024.00
2019-05-14T13:33:56.186Z,28512.00
2019-05-14T13:34:56.223Z,23488.00
2019-05-14T13:35:59.156Z,22752.00
2019-05-14T13:36:59.373Z,31072.00
2019-05-14T13:37:58.677Z,137216.00
2019-05-14T13:38:59.211Z,133472.00
2019-05-14T13:39:59.010Z,129344.00
2019-05-14T13:40:59.249Z,122240.00
2019-05-14T13:41:58.760Z,122592.00
2019-05-14T13:42:56.537Z,128032.00
2019-05-14T13:43:58.789Z,125920.00
2019-05-14T13:44:58.423Z,135392.00
2019-05-14T13:46:00.307Z,28256.00
2019-05-14T13:46:59.338Z,20992.00
2019-05-14T13:47:59.106Z,19840.00
2019-05-14T13:48:59.176Z,19328.00
2019-05-14T13:49:59.105Z,18208.00
2019-05-14T13:50:56.870Z,17920.00
2019-05-14T13:51:56.911Z,18304.00
2019-05-14T13:53:02.258Z,18752.00
2019-05-14T13:53:58.938Z,18816.00
2019-05-14T13:54:57.036Z,18592.00
2019-05-14T13:55:58.017Z,18784.00
2019-05-14T13:56:58.645Z,20736.00
2019-05-14T13:57:59.824Z,45312.00
2019-05-14T13:58:59.081Z,25536.00
2019-05-14T13:59:58.966Z,23072.00
2019-05-14T14:00:59.126Z,21440.00
2019-05-14T14:01:59.122Z,20896.00
2019-05-14T14:02:58.969Z,23424.00
2019-05-14T14:04:06.828Z,91264.00
2019-05-14T14:04:59.003Z,27008.00